Time;durP1;ratioP1;P1;durP2;ratioP2;P2;SDS_P1;SDS_P2;PMS_P1;PMS_P2;Temp;Humidity;BMP_temperature;BMP_pressure;BME280_temperature;BME280_humidity;BME280_pressure;Samples;Min_cycle;Max_cycle;Signal;HPM_P1;HPM_P2
2022/06/01 00:02:08;;;;;;;;;2.60;2.20;;;;;14.90;100.00;101168.09;6247676;22;47091;-85
2022/06/01 00:04:40;;;;;;;;;4.20;3.00;;;;;14.89;100.00;101171.72;6244092;22;45459;-85
2022/06/01 00:07:09;;;;;;;;;2.00;2.00;;;;;14.85;100.00;101172.97;6250915;22;45421;-85
2022/06/01 00:09:38;;;;;;;;;3.00;2.75;;;;;14.80;100.00;101167.97;6250715;22;45291;-85
2022/06/01 00:12:11;;;;;;;;;4.00;4.00;;;;;14.81;100.00;101174.16;6255274;22;44973;-84
2022/06/01 00:14:45;;;;;;;;;2.40;2.40;;;;;14.78;100.00;101174.41;6227433;22;45833;-84
2022/06/01 00:17:25;;;;;;;;;;;;;;;;;;;;;
2022/06/01 00:19:53;;;;;;;;;2.80;2.80;;;;;14.70;100.00;101177.69;6252233;22;69184;-85
2022/06/01 00:22:24;;;;;;;;;2.00;2.00;;;;;14.69;100.00;101178.63;6252494;22;45394;-84
2022/06/01 00:24:53;;;;;;;;;1.00;1.00;;;;;14.70;100.00;101182.16;6223791;22;44637;-85
2022/06/01 00:27:21;;;;;;;;;2.40;2.40;;;;;14.66;100.00;101173.53;6248633;22;44781;-83
2022/06/01 00:29:57;;;;;;;;;3.50;2.75;;;;;14.68;100.00;101179.59;6252087;22;44788;-86
2022/06/01 00:32:31;;;;;;;;;2.20;2.00;;;;;14.67;100.00;101182.41;6248109;22;45233;-83
2022/06/01 00:39:05;;;;;;;;;;;;;;;;;;;;;
2022/06/01 00:41:23;;;;;;;;;2.60;2.60;;;;;14.54;100.00;101177.13;6119213;23;45428;-86
2022/06/01 00:43:49;;;;;;;;;2.60;2.00;;;;;14.51;100.00;101180.06;6131371;23;45340;-85
2022/06/01 00:46:18;;;;;;;;;2.00;2.00;;;;;14.48;100.00;101175.78;6133093;23;44727;-84
2022/06/01 00:48:49;;;;;;;;;2.00;2.00;;;;;14.45;100.00;101173.31;6111988;23;45365;-84
2022/06/01 00:51:21;;;;;;;;;2.00;2.00;;;;;14.43;100.00;101174.41;6133884;23;45308;-85
2022/06/01 00:53:56;;;;;;;;;1.40;1.40;;;;;14.37;100.00;101168.56;6131909;23;45421;-85
2022/06/01 00:56:39;;;;;;;;;2.00;2.00;;;;;14.34;100.00;101181.31;6110916;23;44873;-84
2022/06/01 00:59:19;;;;;;;;;2.00;2.00;;;;;14.32;100.00;101176.06;6142198;23;44892;-87
2022/06/01 01:01:45;;;;;;;;;2.60;2.00;;;;;14.31;100.00;101186.88;6119733;23;44910;-86
2022/06/01 01:04:18;;;;;;;;;2.60;2.00;;;;;14.30;100.00;101190.50;6130210;23;45277;-83
2022/06/01 01:06:53;;;;;;;;;1.20;1.20;;;;;14.30;100.00;101180.66;6126150;23;45339;-85
2022/06/01 01:09:44;;;;;;;;;3.60;1.00;;;;;14.28;100.00;101185.28;6098856;23;45447;-85
2022/06/01 01:15:23;;;;;;;;;2.40;1.40;;;;;14.20;100.00;101179.66;6131647;23;45405;-83
2022/06/01 01:18:12;;;;;;;;;2.60;2.00;;;;;14.16;100.00;101180.84;6153614;22;45217;-83
2022/06/01 01:21:09;;;;;;;;;2.60;0.80;;;;;14.13;100.00;101189.13;6220938;22;45384;-85
2022/06/01 01:24:16;;;;;;;;;2.00;2.00;;;;;14.08;100.00;101177.94;6245929;22;45408;-84
2022/06/01 01:26:56;;;;;;;;;3.25;2.25;;;;;14.04;100.00;101169.28;6247962;22;45478;-86
2022/06/01 01:30:23;;;;;;;;;2.60;2.60;;;;;14.01;100.00;101169.50;6226946;22;45255;-85
2022/06/01 01:44:03;;;;;;;;;5.40;2.20;;;;;13.85;100.00;101185.81;6012636;23;44969;-83
2022/06/01 01:46:30;;;;;;;;;2.20;2.20;;;;;13.83;100.00;101178.91;6000643;23;45509;-85
2022/06/01 01:48:59;;;;;;;;;2.00;2.00;;;;;13.78;100.00;101178.34;6004718;23;45548;-86
2022/06/01 01:51:26;;;;;;;;;2.00;2.00;;;;;13.73;100.00;101178.72;5981891;23;46723;-84
2022/06/01 01:53:54;;;;;;;;;2.40;2.40;;;;;13.72;100.00;101184.16;6004621;23;44915;-84
2022/06/01 01:56:55;;;;;;;;;2.00;2.00;;;;;13.69;100.00;101176.38;6006824;23;45315;-84
2022/06/01 01:59:42;;;;;;;;;2.00;2.00;;;;;13.67;100.00;101172.94;6005949;23;45554;-84
2022/06/01 02:02:17;;;;;;;;;1.80;1.80;;;;;13.63;100.00;101174.97;6005473;23;45252;-84
2022/06/01 02:07:49;;;;;;;;;1.80;1.80;;;;;13.54;100.00;101155.16;6001653;23;44782;-84
2022/06/01 02:13:09;;;;;;;;;4.20;1.20;;;;;13.55;100.00;101153.34;6043829;23;44997;-85
2022/06/01 02:15:42;;;;;;;;;6.20;2.80;;;;;13.57;100.00;101154.06;6039950;23;45425;-84
2022/06/01 02:18:18;;;;;;;;;1.80;1.80;;;;;13.58;100.00;101151.28;6119532;23;44789;-85
2022/06/01 02:20:48;;;;;;;;;3.75;3.00;;;;;13.56;100.00;101152.38;6222245;22;44747;-83
2022/06/01 02:23:15;;;;;;;;;12.25;8.00;;;;;13.51;100.00;101147.38;6216636;22;47148;-84
2022/06/01 02:25:44;;;;;;;;;12.25;10.25;;;;;13.46;100.00;101154.00;6215752;22;45322;-84
2022/06/01 02:28:10;;;;;;;;;11.00;9.50;;;;;13.44;100.00;101148.81;6243905;22;44643;-86
2022/06/01 02:30:42;;;;;;;;;14.50;9.00;;;;;13.43;100.00;101148.88;6217276;22;45239;-85
2022/06/01 02:33:17;;;;;;;;;12.75;11.00;;;;;13.43;100.00;101154.22;6243971;22;45007;-83
2022/06/01 02:35:46;;;;;;;;;10.25;8.75;;;;;13.42;100.00;101149.84;6216559;22;44857;-84
2022/06/01 02:38:21;;;;;;;;;8.75;8.75;;;;;13.38;100.00;101151.88;6217722;22;45264;-85
2022/06/01 02:40:47;;;;;;;;;14.75;11.75;;;;;13.38;100.00;101152.72;6220631;22;45143;-87
2022/06/01 02:43:13;;;;;;;;;6.75;6.00;;;;;13.34;100.00;101148.63;6229471;22;45251;-87
2022/06/01 02:45:40;;;;;;;;;10.50;10.00;;;;;13.32;100.00;101152.34;6254779;22;44710;-83
2022/06/01 02:48:06;;;;;;;;;8.50;8.50;;;;;13.26;100.00;101142.97;6251282;22;45036;-84
2022/06/01 02:50:34;;;;;;;;;7.50;7.50;;;;;13.21;100.00;101147.75;6257877;22;45371;-84
2022/06/01 02:53:03;;;;;;;;;14.25;10.75;;;;;13.17;100.00;101140.06;6261229;22;45984;-84
2022/06/01 02:55:30;;;;;;;;;16.20;13.00;;;;;13.08;100.00;101137.09;6289609;22;45218;-84
2022/06/01 02:57:56;;;;;;;;;13.25;11.50;;;;;13.06;100.00;101132.84;6252315;22;44739;-86
2022/06/01 03:00:26;;;;;;;;;8.25;7.50;;;;;13.03;100.00;101133.88;6249108;22;44766;-84
2022/06/01 03:02:57;;;;;;;;;12.25;10.75;;;;;13.03;100.00;101131.22;6249958;22;45338;-84
2022/06/01 03:05:26;;;;;;;;;10.75;9.50;;;;;13.03;100.00;101139.22;6280087;22;45092;-85
2022/06/01 03:07:51;;;;;;;;;10.75;10.75;;;;;13.00;100.00;101134.09;6276675;22;44664;-85
2022/06/01 03:10:18;;;;;;;;;11.50;11.00;;;;;12.98;100.00;101137.84;6250524;22;44954;-84
2022/06/01 03:12:43;;;;;;;;;7.50;5.50;;;;;12.91;100.00;101129.44;6254449;22;46750;-86
2022/06/01 03:15:16;;;;;;;;;12.50;8.75;;;;;12.85;100.00;101133.34;6259024;22;44728;-85
2022/06/01 03:17:42;;;;;;;;;12.50;10.50;;;;;12.81;100.00;101137.22;6291175;22;44725;-84
2022/06/01 03:20:08;;;;;;;;;11.25;8.25;;;;;12.78;100.00;101142.75;6289568;22;45123;-85
2022/06/01 03:22:38;;;;;;;;;9.00;8.50;;;;;12.73;100.00;101138.72;6287644;22;45148;-84
2022/06/01 03:25:07;;;;;;;;;12.25;9.25;;;;;12.73;100.00;101149.38;6230058;22;45334;-84
2022/06/01 03:27:33;;;;;;;;;17.75;12.50;;;;;12.69;100.00;101146.06;6282564;22;45409;-84
2022/06/01 03:30:02;;;;;;;;;13.25;9.00;;;;;12.65;100.00;101147.22;6282582;22;45100;-85
2022/06/01 03:32:27;;;;;;;;;15.00;9.25;;;;;12.64;100.00;101155.34;6252400;22;45161;-83
2022/06/01 03:34:53;;;;;;;;;11.75;10.25;;;;;12.59;100.00;101150.31;6276757;22;44712;-85
2022/06/01 03:37:18;;;;;;;;;13.75;11.00;;;;;12.55;100.00;101155.00;6249314;22;45253;-84
2022/06/01 03:39:44;;;;;;;;;9.00;9.00;;;;;12.53;100.00;101148.94;6280968;22;45619;-83
2022/06/01 03:42:11;;;;;;;;;12.00;9.25;;;;;12.48;100.00;101143.06;6284297;22;44878;-84
2022/06/01 03:47:20;;;;;;;;;8.50;8.50;;;;;12.45;100.00;101156.59;6280697;22;44650;-84
2022/06/01 03:49:46;;;;;;;;;9.50;9.50;;;;;12.44;100.00;101160.22;6279436;22;44897;-84
2022/06/01 03:52:12;;;;;;;;;17.00;11.00;;;;;12.45;100.00;101161.06;6256237;22;46144;-83
2022/06/01 03:54:39;;;;;;;;;13.00;12.00;;;;;12.42;100.00;101161.28;6284312;22;45229;-84
2022/06/01 03:57:07;;;;;;;;;10.00;9.25;;;;;12.43;100.00;101168.34;6282050;22;44681;-85
2022/06/01 03:59:33;;;;;;;;;11.25;11.00;;;;;12.42;100.00;101172.78;6281217;22;44836;-85
2022/06/01 04:02:06;;;;;;;;;13.50;11.25;;;;;12.45;100.00;101169.06;6279964;22;45337;-85
2022/06/01 04:04:33;;;;;;;;;10.75;10.75;;;;;12.51;100.00;101172.16;6278179;22;45417;-84
2022/06/01 04:06:59;;;;;;;;;10.25;9.00;;;;;12.64;100.00;101174.84;6251618;22;45269;-84
2022/06/01 04:09:25;;;;;;;;;19.50;11.75;;;;;12.78;100.00;101176.56;6279308;22;45271;-85
2022/06/01 04:11:54;;;;;;;;;14.50;10.25;;;;;12.90;100.00;101169.53;6282363;22;45233;-86
2022/06/01 04:14:20;;;;;;;;;11.50;10.00;;;;;13.08;100.00;101169.09;6286189;22;44802;-86
2022/06/01 04:16:49;;;;;;;;;11.25;9.50;;;;;13.23;100.00;101166.34;6283709;22;45452;-85
2022/06/01 04:19:20;;;;;;;;;7.75;7.75;;;;;13.36;100.00;101165.34;6257087;22;44818;-84
2022/06/01 04:21:51;;;;;;;;;7.00;7.00;;;;;13.48;100.00;101170.75;6284840;22;45119;-85
2022/06/01 04:24:22;;;;;;;;;7.00;6.80;;;;;13.60;100.00;101176.06;6253058;22;44639;-84
2022/06/01 04:26:48;;;;;;;;;8.75;7.75;;;;;13.68;100.00;101172.81;6249103;22;45313;-86
2022/06/01 04:29:15;;;;;;;;;10.50;7.75;;;;;13.80;100.00;101182.63;6254475;22;44805;-84
2022/06/01 04:31:41;;;;;;;;;7.00;7.00;;;;;13.82;100.00;101191.38;6255212;22;45366;-86
2022/06/01 04:34:07;;;;;;;;;7.60;5.80;;;;;13.91;100.00;101189.84;6282896;22;45320;-86
2022/06/01 04:36:37;;;;;;;;;6.80;6.20;;;;;13.99;100.00;101183.94;6251663;22;45241;-86
2022/06/01 04:39:09;;;;;;;;;3.50;3.50;;;;;14.07;100.00;101190.44;6255470;22;44842;-86
2022/06/01 04:41:48;;;;;;;;;5.00;5.00;;;;;14.15;100.00;101193.38;6255324;22;46664;-86
2022/06/01 04:44:14;;;;;;;;;6.40;6.40;;;;;14.24;100.00;101193.66;6279327;22;45180;-86
2022/06/01 04:46:39;;;;;;;;;6.50;5.50;;;;;14.36;100.00;101190.06;6276904;22;44729;-86
2022/06/01 04:49:07;;;;;;;;;4.00;4.00;;;;;14.45;100.00;101188.50;6276741;22;44761;-86
2022/06/01 04:51:34;;;;;;;;;3.00;3.00;;;;;14.63;100.00;101195.16;6274304;22;46793;-86
2022/06/01 04:54:00;;;;;;;;;5.80;5.80;;;;;14.83;100.00;101196.28;6276405;22;45160;-86
2022/06/01 04:56:32;;;;;;;;;5.00;5.00;;;;;14.97;100.00;101204.09;6277100;22;45349;-87
2022/06/01 04:58:57;;;;;;;;;8.00;6.00;;;;;15.11;100.00;101208.38;6286449;22;45345;-87
2022/06/01 05:01:23;;;;;;;;;6.50;6.50;;;;;15.27;100.00;101211.53;6284124;22;44898;-84
2022/06/01 05:03:56;;;;;;;;;7.00;7.00;;;;;15.31;100.00;101209.47;6284795;22;44785;-86
2022/06/01 05:06:22;;;;;;;;;8.40;6.20;;;;;15.42;100.00;101206.78;6282103;22;44682;-87
2022/06/01 05:08:51;;;;;;;;;7.00;7.00;;;;;15.56;100.00;101208.38;6256035;22;44815;-84
2022/06/01 05:11:24;;;;;;;;;6.40;6.40;;;;;15.62;100.00;101218.59;6279900;22;46367;-86
2022/06/01 05:14:12;;;;;;;;;5.80;5.40;;;;;15.66;100.00;101220.94;6282149;22;44820;-87
2022/06/01 05:16:38;;;;;;;;;6.60;6.60;;;;;15.71;100.00;101220.53;6284571;22;45255;-86
2022/06/01 05:19:12;;;;;;;;;6.00;6.00;;;;;15.82;100.00;101217.88;6280732;22;44864;-87
2022/06/01 05:21:42;;;;;;;;;6.80;6.20;;;;;15.94;100.00;101214.16;6249311;22;45502;-87
2022/06/01 05:24:28;;;;;;;;;5.60;5.00;;;;;16.08;100.00;101214.88;6278672;22;44858;-86
2022/06/01 05:26:54;;;;;;;;;5.80;5.80;;;;;16.22;100.00;101211.06;6256725;22;45464;-86
2022/06/01 05:29:19;;;;;;;;;9.00;5.25;;;;;16.22;100.00;101219.94;6281388;22;44849;-85
2022/06/01 05:31:45;;;;;;;;;7.25;6.25;;;;;16.17;100.00;101212.28;6279867;22;45467;-83
2022/06/01 05:34:10;;;;;;;;;9.25;5.50;;;;;16.11;100.00;101218.16;6275076;22;44768;-83
2022/06/01 05:36:36;;;;;;;;;4.25;4.25;;;;;16.27;100.00;101219.56;6289402;22;45246;-86
2022/06/01 05:39:03;;;;;;;;;4.25;4.25;;;;;16.48;100.00;101220.44;6256800;22;45312;-85
2022/06/01 05:41:28;;;;;;;;;5.60;5.60;;;;;16.62;100.00;101222.81;6259450;22;46614;-83
2022/06/01 05:43:54;;;;;;;;;3.50;3.50;;;;;16.61;100.00;101222.94;6291340;22;44767;-84
2022/06/01 05:46:21;;;;;;;;;4.20;3.00;;;;;16.56;100.00;101215.28;6288119;22;44849;-83
2022/06/01 05:48:46;;;;;;;;;3.00;3.00;;;;;16.69;100.00;101215.97;6285347;22;44780;-84
2022/06/01 05:51:12;;;;;;;;;2.75;2.75;;;;;16.77;100.00;101211.78;6278486;22;45300;-84
2022/06/01 05:53:37;;;;;;;;;5.25;4.00;;;;;16.69;100.00;101213.28;6278833;22;44712;-84
2022/06/01 05:56:03;;;;;;;;;4.00;4.00;;;;;16.78;100.00;101211.69;6277434;22;45042;-83
2022/06/01 05:58:30;;;;;;;;;4.00;4.00;;;;;16.95;100.00;101210.22;6282451;22;45325;-89
2022/06/01 06:01:01;;;;;;;;;1.60;1.60;;;;;17.03;100.00;101213.09;6289319;22;46852;-83
2022/06/01 06:03:27;;;;;;;;;2.00;2.00;;;;;17.21;100.00;101216.88;6275587;22;45362;-83
2022/06/01 06:08:38;;;;;;;;;1.00;1.00;;;;;17.11;100.00;101215.09;6277575;22;44670;-84
2022/06/01 06:11:06;;;;;;;;;2.40;2.40;;;;;17.16;100.00;101215.53;6277078;22;45189;-81
2022/06/01 06:13:34;;;;;;;;;4.40;3.00;;;;;17.13;100.00;101226.56;6282879;22;45329;-83
2022/06/01 06:16:00;;;;;;;;;3.20;3.00;;;;;16.95;100.00;101220.94;6278590;22;44854;-83
2022/06/01 06:18:26;;;;;;;;;0.20;0.20;;;;;16.68;100.00;101221.44;6276854;22;45087;-85
2022/06/01 06:20:51;;;;;;;;;2.75;2.00;;;;;16.92;100.00;101214.03;6279519;22;45095;-84
2022/06/01 06:23:17;;;;;;;;;3.50;2.25;;;;;16.96;100.00;101214.59;6277365;22;44725;-84
2022/06/01 06:25:42;;;;;;;;;2.75;2.00;;;;;17.04;100.00;101217.47;6275527;22;44740;-83
2022/06/01 06:28:09;;;;;;;;;4.00;2.75;;;;;17.18;100.00;101219.81;6276109;22;45270;-84
2022/06/01 06:30:36;;;;;;;;;3.40;3.40;;;;;17.36;100.00;101224.56;6248114;22;44996;-84
2022/06/01 06:33:02;;;;;;;;;2.60;2.60;;;;;17.77;99.94;101222.75;6275628;22;44764;-81
2022/06/01 06:35:28;;;;;;;;;2.75;2.75;;;;;17.75;97.28;101224.75;6274451;22;45427;-81
2022/06/01 06:37:53;;;;;;;;;5.00;3.25;;;;;17.54;98.12;101224.75;6246089;22;44869;-82
2022/06/01 06:40:18;;;;;;;;;3.00;3.00;;;;;17.49;98.82;101230.53;6274138;22;45249;-82
2022/06/01 06:42:44;;;;;;;;;2.75;2.75;;;;;17.13;99.49;101226.56;6277401;22;45319;-82
2022/06/01 06:45:09;;;;;;;;;2.75;2.00;;;;;17.38;99.45;101226.13;6253710;22;45156;-81
2022/06/01 06:47:35;;;;;;;;;2.00;2.00;;;;;17.53;98.53;101240.03;6246624;22;45259;-82
2022/06/01 06:50:07;;;;;;;;;3.50;2.00;;;;;17.66;95.96;101237.97;6274387;22;45824;-82
2022/06/01 06:52:33;;;;;;;;;3.80;3.00;;;;;17.53;95.90;101247.25;6274695;22;45246;-82
2022/06/01 06:54:58;;;;;;;;;2.75;2.75;;;;;17.52;97.04;101241.03;6275923;22;45283;-81
2022/06/01 06:57:24;;;;;;;;;2.50;2.00;;;;;17.81;96.10;101243.00;6276415;22;45380;-82
2022/06/01 06:59:49;;;;;;;;;0.75;0.75;;;;;18.01;95.12;101236.69;6276957;22;44978;-82
2022/06/01 07:02:16;;;;;;;;;2.00;2.00;;;;;18.24;94.48;101243.50;6280844;22;44694;-84
2022/06/01 07:04:47;;;;;;;;;1.40;1.40;;;;;18.37;93.23;101242.38;6283510;22;44685;-82
2022/06/01 07:07:13;;;;;;;;;4.00;2.00;;;;;18.35;90.64;101241.69;6284413;22;44772;-84
2022/06/01 07:09:39;;;;;;;;;0.20;0.20;;;;;17.91;90.84;101241.19;6258822;22;46615;-85
2022/06/01 07:12:05;;;;;;;;;1.75;1.75;;;;;17.86;90.91;101252.34;6286608;22;44654;-84
2022/06/01 07:14:31;;;;;;;;;0.00;0.00;;;;;17.94;91.32;101246.31;6289620;22;45227;-82
2022/06/01 07:17:00;;;;;;;;;3.00;2.00;;;;;18.19;90.31;101245.78;6279214;22;44739;-83
2022/06/01 07:19:25;;;;;;;;;1.20;1.00;;;;;18.46;89.48;101242.38;6274449;22;45305;-82
2022/06/01 07:21:51;;;;;;;;;4.75;3.00;;;;;18.61;86.70;101247.34;6276644;22;45306;-81
2022/06/01 07:24:16;;;;;;;;;3.75;1.75;;;;;18.51;86.05;101252.72;6249374;22;45360;-80
2022/06/01 07:26:44;;;;;;;;;2.75;2.75;;;;;18.49;86.35;101260.09;6274888;22;45236;-81
2022/06/01 07:29:12;;;;;;;;;2.00;1.00;;;;;18.36;88.49;101254.97;6274533;22;45079;-81
2022/06/01 07:31:38;;;;;;;;;3.80;2.20;;;;;18.86;88.91;101243.25;6273797;22;44680;-81
2022/06/01 07:34:04;;;;;;;;;3.25;3.00;;;;;19.18;84.36;101243.72;6274261;22;45203;-82
2022/06/01 07:36:30;;;;;;;;;2.00;2.00;;;;;19.42;82.85;101243.22;6274248;22;44904;-83
2022/06/01 07:44:43;;;;;;;;;3.20;2.00;;;;;20.25;80.13;101240.53;6279837;22;44751;-81
2022/06/01 07:47:10;;;;;;;;;1.40;1.40;;;;;19.96;75.27;101243.41;6279105;22;45326;-81
2022/06/01 07:49:36;;;;;;;;;2.80;2.00;;;;;19.23;78.08;101252.22;6273069;22;45112;-83
2022/06/01 07:52:03;;;;;;;;;2.00;2.00;;;;;18.87;81.52;101255.72;6274774;22;45335;-81
2022/06/01 07:54:29;;;;;;;;;1.00;1.00;;;;;18.52;83.62;101253.56;6274826;22;44630;-81
2022/06/01 07:56:54;;;;;;;;;2.40;2.40;;;;;18.67;84.24;101247.63;6275076;22;44750;-82
2022/06/01 07:59:20;;;;;;;;;2.00;2.00;;;;;18.96;83.51;101252.16;6274216;22;45142;-80
2022/06/01 08:01:45;;;;;;;;;4.25;3.00;;;;;18.67;84.05;101254.88;6274115;22;44740;-80
2022/06/01 08:04:11;;;;;;;;;3.50;2.00;;;;;18.27;87.23;101258.50;6274302;22;45216;-81
2022/06/01 08:06:38;;;;;;;;;6.00;4.00;;;;;18.20;88.98;101255.53;6274888;22;45287;-82
2022/06/01 08:09:05;;;;;;;;;4.60;2.20;;;;;18.00;88.36;101250.28;6278517;22;45065;-82
2022/06/01 08:14:16;;;;;;;;;4.80;3.00;;;;;17.64;92.72;101256.06;6278432;22;44673;-82
2022/06/01 08:16:44;;;;;;;;;3.00;2.00;;;;;17.77;91.18;101253.16;6286407;22;45003;-81
2022/06/01 08:19:10;;;;;;;;;4.40;3.40;;;;;17.99;89.49;101249.44;6276604;22;44967;-81
2022/06/01 08:21:37;;;;;;;;;3.60;3.60;;;;;18.12;89.62;101244.63;6276151;22;45318;-81
2022/06/01 08:24:04;;;;;;;;;4.60;3.80;;;;;18.19;88.71;101253.84;6275418;22;45328;-81
2022/06/01 08:26:29;;;;;;;;;4.40;3.20;;;;;18.29;87.23;101248.47;6279370;22;45225;-81
2022/06/01 08:28:55;;;;;;;;;2.50;2.50;;;;;18.38;86.26;101254.84;6277888;22;45129;-82
2022/06/01 08:31:20;;;;;;;;;0.00;0.00;;;;;17.94;87.87;101247.16;6277283;22;45113;-83
2022/06/01 08:33:46;;;;;;;;;6.75;3.00;;;;;17.73;88.98;101249.91;6277510;22;45413;-82
2022/06/01 08:36:11;;;;;;;;;2.50;2.50;;;;;17.85;89.16;101242.59;6279456;22;44760;-84
2022/06/01 08:38:37;;;;;;;;;3.75;3.00;;;;;18.14;88.29;101253.41;6278291;22;45313;-81
2022/06/01 08:41:06;;;;;;;;;4.00;3.00;;;;;17.95;91.14;101248.84;6277833;22;45276;-83
2022/06/01 08:43:54;;;;;;;;;2.40;1.40;;;;;17.90;91.32;101240.34;6274435;22;44869;-81
2022/06/01 08:46:21;;;;;;;;;4.00;2.20;;;;;18.19;90.78;101247.63;6279294;22;45387;-82
2022/06/01 08:48:48;;;;;;;;;5.00;2.20;;;;;18.29;90.07;101244.94;6277018;22;45506;-81
2022/06/01 08:51:16;;;;;;;;;2.00;2.00;;;;;18.30;89.16;101255.53;6272062;22;44714;-81
2022/06/01 08:53:42;;;;;;;;;6.60;6.00;;;;;18.64;89.01;101245.22;6269763;22;44863;-83
2022/06/01 08:56:13;;;;;;;;;3.75;1.75;;;;;18.77;86.34;101249.50;6273618;22;45411;-82
2022/06/01 08:59:05;;;;;;;;;2.00;2.00;;;;;18.62;88.00;101246.38;6245461;22;45447;-82
2022/06/01 09:01:44;;;;;;;;;4.00;2.20;;;;;18.80;86.66;101252.72;6273131;22;44614;-81
2022/06/01 09:04:24;;;;;;;;;3.00;3.00;;;;;19.08;83.77;101252.84;6273868;22;45193;-81
2022/06/01 09:07:09;;;;;;;;;3.80;2.60;;;;;19.33;84.63;101246.81;6274430;22;45498;-81
2022/06/01 09:10:04;;;;;;;;;5.20;2.80;;;;;19.68;81.77;101248.00;6273873;22;45342;-81
2022/06/01 09:12:33;;;;;;;;;3.80;3.80;;;;;19.80;80.85;101257.56;6178762;23;45280;-83
2022/06/01 09:15:09;;;;;;;;;3.60;2.80;;;;;19.89;79.48;101253.13;6181527;23;44769;-88
2022/06/01 09:17:36;;;;;;;;;4.40;3.80;;;;;19.12;81.57;101255.09;6193306;23;44833;-83
2022/06/01 09:22:49;;;;;;;;;4.80;2.00;;;;;18.66;85.10;101250.44;6185071;23;45232;-83
2022/06/01 09:25:19;;;;;;;;;4.00;2.40;;;;;18.89;85.50;101251.88;6159987;23;45518;-85
2022/06/01 09:27:54;;;;;;;;;2.40;2.40;;;;;18.94;85.88;101254.13;6184591;23;44840;-85
2022/06/01 09:30:30;;;;;;;;;2.20;2.20;;;;;19.05;84.22;101255.81;6191652;23;44997;-84
2022/06/01 09:33:14;;;;;;;;;3.80;2.00;;;;;19.11;82.01;101249.88;6193890;23;45322;-84
2022/06/01 09:35:53;;;;;;;;;2.60;2.60;;;;;19.18;80.07;101251.81;6195360;23;45202;-84
2022/06/01 09:38:48;;;;;;;;;2.80;1.60;;;;;19.24;79.79;101245.88;6173628;23;44901;-83
2022/06/01 09:41:20;;;;;;;;;4.20;3.20;;;;;18.95;77.80;101261.22;6200008;23;47543;-85
2022/06/01 09:43:57;;;;;;;;;2.40;2.40;;;;;18.62;78.98;101257.97;6200688;23;45338;-84
2022/06/01 09:46:33;;;;;;;;;3.00;3.00;;;;;18.38;81.59;101265.63;6198276;23;44744;-84
2022/06/01 09:49:03;;;;;;;;;3.20;2.00;;;;;18.67;80.10;101258.41;6207519;22;45189;-85
2022/06/01 09:51:31;;;;;;;;;1.00;1.00;;;;;18.68;80.82;101254.75;6253403;22;45026;-85
2022/06/01 09:54:21;;;;;;;;;2.00;2.00;;;;;18.70;80.88;101243.81;6255249;22;44729;-85
2022/06/01 09:56:48;;;;;;;;;2.40;2.40;;;;;18.92;79.47;101251.59;6255954;22;44718;-86
2022/06/01 10:08:18;;;;;;;;;3.00;3.00;;;;;19.09;79.02;101241.91;6275515;22;45195;-86
2022/06/01 10:10:58;;;;;;;;;4.20;3.20;;;;;19.07;79.30;101245.75;6275124;22;44836;-86
2022/06/01 10:13:52;;;;;;;;;2.00;2.00;;;;;19.34;77.96;101243.13;6274203;22;44971;-85
2022/06/01 10:16:27;;;;;;;;;2.20;2.20;;;;;19.58;75.92;101245.31;6267698;22;45511;-86
2022/06/01 10:18:55;;;;;;;;;2.00;2.00;;;;;19.81;75.63;101235.00;6255918;22;45184;-85
2022/06/01 10:21:29;;;;;;;;;1.00;1.00;;;;;19.67;75.35;101238.19;6279271;22;45404;-85
2022/06/01 10:24:01;;;;;;;;;3.20;3.20;;;;;19.24;76.79;101245.88;6275555;22;45121;-85
2022/06/01 10:26:46;;;;;;;;;3.00;3.00;;;;;19.24;76.50;101232.41;6276291;22;44614;-85
2022/06/01 10:29:16;;;;;;;;;2.00;1.80;;;;;19.26;79.87;101226.84;6248467;22;45204;-86
2022/06/01 10:31:50;;;;;;;;;5.00;4.00;;;;;19.39;79.14;101242.66;6275856;22;44744;-85
2022/06/01 10:34:24;;;;;;;;;2.80;2.80;;;;;19.25;76.83;101227.84;6248256;22;45668;-84
2022/06/01 10:36:57;;;;;;;;;3.20;2.00;;;;;19.16;75.62;101234.97;6277925;22;45080;-86
2022/06/01 10:39:31;;;;;;;;;4.60;3.60;;;;;19.35;74.42;101230.50;6255339;22;45219;-83
2022/06/01 10:42:17;;;;;;;;;5.80;3.60;;;;;19.79;74.64;101228.06;6285465;22;44718;-85
2022/06/01 10:44:49;;;;;;;;;2.60;2.60;;;;;19.78;71.35;101232.63;6287337;22;45148;-85
2022/06/01 10:47:37;;;;;;;;;1.20;1.20;;;;;20.20;71.56;101230.19;6285519;22;44805;-84
2022/06/01 10:50:16;;;;;;;;;3.60;3.00;;;;;20.54;65.56;101235.78;6281735;22;45358;-84
2022/06/01 10:53:05;;;;;;;;;5.40;3.00;;;;;19.89;64.19;101239.66;6277602;22;44924;-85
2022/06/01 10:55:42;;;;;;;;;1.00;1.00;;;;;19.75;63.23;101232.91;6275637;22;45026;-86
2022/06/01 10:58:14;;;;;;;;;2.40;2.00;;;;;19.68;65.67;101229.13;6275764;22;44723;-86
2022/06/01 11:00:49;;;;;;;;;2.00;2.00;;;;;20.00;64.91;101231.34;6275102;22;45303;-85
2022/06/01 11:03:27;;;;;;;;;2.80;1.80;;;;;20.18;64.33;101223.28;6275196;22;45192;-85
2022/06/01 11:06:07;;;;;;;;;3.00;3.00;;;;;20.21;64.48;101229.22;6247313;22;45263;-85
2022/06/01 11:09:06;;;;;;;;;4.00;3.00;;;;;20.31;64.13;101217.47;6248024;22;45294;-85
2022/06/01 11:11:47;;;;;;;;;3.20;3.20;;;;;20.65;60.58;101229.31;6276987;22;44776;-85
2022/06/01 11:14:39;;;;;;;;;2.80;2.00;;;;;20.94;58.77;101206.56;6282000;22;44805;-87
2022/06/01 11:17:29;;;;;;;;;2.20;1.80;;;;;20.83;57.56;101209.50;6283759;22;45144;-85
2022/06/01 11:20:04;;;;;;;;;2.00;1.60;;;;;20.90;58.43;101214.13;6251430;22;45294;-85
2022/06/01 11:23:12;;;;;;;;;1.00;1.00;;;;;20.99;58.91;101202.38;6249739;22;45276;-85
2022/06/01 11:25:46;;;;;;;;;3.00;3.00;;;;;21.03;59.18;101208.28;6241847;22;45618;-84
2022/06/01 11:28:30;;;;;;;;;3.00;3.00;;;;;21.21;59.56;101203.69;6274259;22;45000;-85
2022/06/01 11:31:03;;;;;;;;;2.60;2.60;;;;;20.83;56.72;101214.91;6275645;22;44675;-86
2022/06/01 11:33:49;;;;;;;;;2.60;2.60;;;;;20.52;60.27;101197.31;6277996;22;45307;-85
2022/06/01 11:36:15;;;;;;;;;2.40;2.40;;;;;20.92;60.61;101200.47;6278664;22;45274;-85
2022/06/01 11:38:46;;;;;;;;;1.00;1.00;;;;;20.90;60.16;101197.94;6278885;22;45011;-85
2022/06/01 11:41:24;;;;;;;;;2.00;2.00;;;;;20.74;59.22;101195.09;6281725;22;45268;-85
2022/06/01 11:44:08;;;;;;;;;2.00;2.00;;;;;20.83;60.79;101196.84;6289869;22;45260;-85
2022/06/01 11:46:34;;;;;;;;;4.40;3.00;;;;;20.59;60.67;101205.63;6289414;22;45239;-85
2022/06/01 11:49:04;;;;;;;;;1.00;1.00;;;;;20.37;60.45;101206.09;6282417;22;44872;-84
2022/06/01 11:51:35;;;;;;;;;3.40;3.40;;;;;20.63;60.24;101195.34;6277111;22;45311;-85
2022/06/01 11:54:08;;;;;;;;;2.80;1.80;;;;;20.98;59.49;101195.28;6276925;22;45165;-84
2022/06/01 11:56:42;;;;;;;;;2.00;2.00;;;;;21.40;57.03;101202.63;6276019;22;45332;-84
2022/06/01 11:59:32;;;;;;;;;1.00;1.00;;;;;20.98;57.31;101189.88;6275221;22;46109;-86
2022/06/01 12:01:58;;;;;;;;;1.00;1.00;;;;;20.60;57.55;101188.44;6277072;22;45310;-85
2022/06/01 12:04:36;;;;;;;;;1.80;1.00;;;;;20.94;58.47;101187.66;6249813;22;44641;-85
2022/06/01 12:07:21;;;;;;;;;1.40;1.40;;;;;21.01;54.02;101196.81;6250364;22;44963;-85
2022/06/01 12:10:00;;;;;;;;;2.00;2.00;;;;;21.09;54.61;101194.16;6278593;22;45248;-84
2022/06/01 12:12:34;;;;;;;;;3.00;1.00;;;;;21.51;53.86;101194.22;6280263;22;44722;-85
2022/06/01 12:15:26;;;;;;;;;2.00;0.00;;;;;21.61;54.21;101190.53;6280119;22;45484;-85
2022/06/01 12:18:16;;;;;;;;;1.80;1.80;;;;;21.70;52.94;101189.56;6281924;22;45321;-85
2022/06/01 12:20:51;;;;;;;;;3.40;2.60;;;;;22.06;52.84;101192.88;6280726;22;45225;-84
2022/06/01 12:29:02;;;;;;;;;4.00;2.20;;;;;22.23;49.40;101186.50;6275232;22;44694;-85
2022/06/01 12:31:30;;;;;;;;;2.00;2.00;;;;;22.42;47.29;101182.59;6275031;22;45376;-85
2022/06/01 12:34:33;;;;;;;;;2.80;2.80;;;;;22.59;48.42;101186.19;6250694;22;45412;-84
2022/06/01 12:37:08;;;;;;;;;3.40;1.40;;;;;21.80;47.65;101188.41;6274326;22;44742;-86
2022/06/01 12:39:46;;;;;;;;;2.00;2.00;;;;;21.76;47.74;101186.22;6274922;22;44770;-85